Data for 12/24/2005

Time Sea-Level Adjusted Pressure Absolute Pressure Temperature Relative Humidity Dew Point   
(mb) (inHg) (mb) (inHg) (C) (F) (%) (C) (F)
00:05 1024 30.24 853 25.19 0.4 32.7 55 -7.7 18.2
00:10 1024 30.24 853 25.19 0.3 32.6 54 -7.8 17.9
00:15 1024 30.24 853 25.19 0.5 32.8 54 -7.8 17.9
00:20 1024 30.24 853 25.19 0.7 33.2 54 -7.7 18.2
00:25 1024 30.24 853 25.19 0.7 33.2 55 -7.4 18.6
00:30 1024 30.24 853 25.19 0.7 33.2 55 -7.3 18.9
00:35 1024 30.24 853 25.19 -0.2 31.7 60 -7.1 19.3
00:40 1024 30.24 853 25.19 -0.8 30.6 61 -7.4 18.6
00:45 1024 30.24 853 25.19 -0.8 30.6 61 -7.4 18.6
00:50 1024 30.24 853 25.19 -0.1 31.9 56 -7.9 17.8
00:55 1024 30.24 853 25.19 0.5 33 56 -7.4 18.7
01:00 1024 30.24 853 25.19 0.8 33.5 51 -8.1 17.4
01:05 1024 30.24 853 25.19 1.2 34.1 53 -7.3 18.8
01:10 1024 30.24 853 25.19 1.1 33.9 56 -6.8 19.7
01:15 1023 30.21 853 25.19 0.6 33.1 60 -6.4 20.5
01:20 1023 30.21 853 25.19 0.5 32.9 57 -7 19.4
01:25 1023 30.21 853 25.19 0.8 33.5 55 -7.3 18.9
01:30 1024 30.24 853 25.19 1.2 34.1 56 -6.8 19.8
01:35 1023 30.21 853 25.19 1.1 34.1 56 -6.8 19.8
01:40 1024 30.24 853 25.19 1.1 33.9 58 -6.3 20.7
01:45 1024 30.24 853 25.19 0.8 33.4 58 -6.5 20.3
01:50 1024 30.24 853 25.19 0.9 33.6 59 -6.1 21
01:55 1024 30.24 853 25.19 0.8 33.4 59 -6.3 20.7
02:00 1024 30.24 853 25.19 0.9 33.6 58 -6.6 20.2
02:05 1024 30.24 853 25.19 1.1 34.1 60 -5.8 21.6
02:10 1024 30.24 853 25.19 0.9 33.5 62 -5.5 22.1
02:15 1024 30.24 853 25.19 0.6 33 59 -6.5 20.2
02:20 1024 30.24 853 25.19 0.8 33.5 57 -6.7 20
02:25 1024 30.24 853 25.19 1.7 35.1 50 -7.7 18.1
02:30 1024 30.24 853 25.19 2.5 36.5 50 -6.9 19.6
02:35 1024 30.24 853 25.19 2.5 36.5 51 -6.6 20.1
02:40 1024 30.24 853 25.19 2.3 36.1 54 -6 21.2
02:45 1024 30.24 853 25.19 2 35.5 55 -6 21.1
02:50 1024 30.24 853 25.19 1.9 35.4 58 -5.6 21.9
02:55 1024 30.24 853 25.19 2 35.7 56 -5.9 21.4
03:00 1024 30.24 854 25.22 2.1 35.7 58 -5.4 22.3
03:05 1024 30.24 853 25.19 1.5 34.7 60 -5.4 22.3
03:10 1024 30.24 854 25.22 1.4 34.4 60 -5.6 22
03:15 1024 30.24 854 25.22 2 35.6 55 -6 21.2
03:20 1025 30.27 854 25.22 2.6 36.6 53 -6.1 21
03:25 1025 30.27 854 25.22 2.7 36.8 50 -6.7 19.9
03:30 1025 30.27 854 25.22 2.6 36.7 51 -6.5 20.3
03:35 1024 30.24 854 25.22 2.5 36.5 51 -6.6 20.1
03:40 1025 30.27 854 25.22 2.9 37.1 54 -5.5 22.1
03:45 1025 30.27 854 25.22 2.9 37.2 53 -5.8 21.6
03:50 1025 30.27 854 25.22 2.6 36.7 58 -4.8 23.3
03:55 1025 30.27 854 25.22 2.4 36.3 55 -5.7 21.7
04:00 1025 30.27 854 25.22 2.6 36.6 57 -5.2 22.6
04:05 1025 30.27 854 25.22 2.7 36.8 59 -4.6 23.7
04:10 1025 30.27 854 25.22 2.5 36.6 59 -4.6 23.7
04:15 1025 30.27 854 25.22 2.4 36.4 60 -4.5 23.9
04:20 1024 30.24 854 25.22 2.1 35.7 63 -4.3 24.2
04:25 1024 30.24 854 25.22 2 35.5 63 -4.4 24
04:30 1024 30.24 854 25.22 2 35.6 63 -4.3 24.3
04:35 1024 30.24 854 25.22 2.1 35.7 64 -4.1 24.6
04:40 1025 30.27 854 25.22 2.1 35.8 64 -4.1 24.7
04:45 1025 30.27 854 25.22 2.3 36.1 63 -4 24.8
04:50 1025 30.27 854 25.22 2.4 36.4 64 -3.7 25.3
04:55 1025 30.27 854 25.22 2.4 36.3 64 -3.7 25.4
05:00 1024 30.24 854 25.22 2.1 35.8 68 -3.2 26.2
05:05 1024 30.24 853 25.19 1.9 35.3 70 -3.1 26.4
05:10 1024 30.24 853 25.19 1.5 34.8 71 -3.1 26.4
05:15 1024 30.24 854 25.22 1.6 34.8 72 -3 26.6
05:20 1024 30.24 854 25.22 1.6 34.8 73 -2.7 27.2
05:25 1024 30.24 854 25.22 1.5 34.7 76 -2.4 27.7
05:30 1024 30.24 853 25.19 1.4 34.4 77 -2.2 28
05:35 1024 30.24 853 25.19 1.2 34.2 78 -2.2 28
05:40 1024 30.24 853 25.19 1.2 34.1 78 -2.2 28
05:45 1024 30.24 853 25.19 1.3 34.3 78 -2.2 28
05:50 1024 30.24 853 25.19 1.3 34.3 77 -2.3 27.9
05:55 1024 30.24 853 25.19 1.5 34.7 78 -1.9 28.5
06:00 1024 30.24 853 25.19 1.4 34.5 78 -2 28.5
06:05 1024 30.24 853 25.19 1.5 34.7 78 -2 28.5
06:10 1024 30.24 853 25.19 1.6 34.8 78 -1.9 28.5
06:15 1024 30.24 853 25.19 1.6 35 76 -2.2 28
06:20 1024 30.24 853 25.19 1.9 35.4 76 -1.9 28.5
06:25 1024 30.24 853 25.19 2 35.6 75 -2.1 28.3
06:30 1024 30.24 853 25.19 2.1 35.8 73 -2.2 28
06:35 1024 30.24 853 25.19 2.2 35.9 75 -1.8 28.8
06:40 1024 30.24 853 25.19 2 35.6 75 -2 28.4
06:45 1024 30.24 853 25.19 1.8 35.3 76 -2 28.5
06:50 1024 30.24 853 25.19 1.8 35.2 76 -1.9 28.5
06:55 1024 30.24 853 25.19 1.7 35 78 -1.8 28.7
07:00 1023 30.21 853 25.19 1.5 34.8 78 -1.9 28.6
07:05 1024 30.24 853 25.19 1.5 34.7 78 -1.9 28.6
07:10 1023 30.21 853 25.19 1.7 35.1 78 -1.7 28.9
07:15 1023 30.21 853 25.19 1.8 35.2 77 -1.8 28.8
07:20 1023 30.21 853 25.19 2 35.5 76 -1.9 28.6
07:25 1023 30.21 853 25.19 2.5 36.5 72 -2.1 28.3
07:30 1024 30.24 853 25.19 2.9 37.2 73 -1.5 29.2
07:35 1023 30.21 853 25.19 2.3 36.2 77 -1.3 29.6
07:40 1023 30.21 853 25.19 1.7 35 79 -1.6 29.1
07:45 1023 30.21 852 25.16 1.8 35.2 78 -1.7 28.9
07:50 1023 30.21 852 25.16 1.9 35.5 78 -1.6 29.2
07:55 1023 30.21 852 25.16 2.2 35.9 76 -1.7 29
08:00 1023 30.21 852 25.16 2.5 36.4 75 -1.5 29.3
08:05 1023 30.21 852 25.16 2.5 36.5 74 -1.7 28.9
08:10 1023 30.21 852 25.16 3.1 37.7 72 -1.4 29.4
08:15 1023 30.21 852 25.16 2.8 37.1 75 -1.2 29.8
08:20 1023 30.21 852 25.16 2.7 36.8 74 -1.4 29.4
08:25 1023 30.21 852 25.16 2.8 37 74 -1.3 29.6
08:30 1023 30.21 853 25.19 3 37.5 73 -1.4 29.6
08:35 1023 30.21 853 25.19 3.3 37.9 73 -1.1 30
08:40 1023 30.21 853 25.19 3.2 37.7 72 -1.3 29.6
08:45 1024 30.24 853 25.19 2.8 37 75 -1.3 29.7
08:50 1024 30.24 853 25.19 2.7 36.9 74 -1.4 29.5
08:55 1023 30.21 853 25.19 2.7 36.9 75 -1.3 29.6
09:00 1023 30.21 853 25.19 2.9 37.3 73 -1.4 29.5
09:05 1023 30.21 853 25.19 3.3 37.9 71 -1.4 29.4
09:10 1023 30.21 853 25.19 3.7 38.6 69 -1.4 29.5
09:15 1023 30.21 853 25.19 3.7 38.7 70 -1.2 29.8
09:20 1023 30.21 853 25.19 3.9 39.1 69 -1.2 29.9
09:25 1023 30.21 852 25.16 4.4 39.9 69 -0.8 30.5
09:30 1023 30.21 852 25.16 4.5 40.1 70 -0.6 31
09:35 1023 30.21 853 25.19 4.6 40.2 69 -0.6 30.9
09:40 1023 30.21 852 25.16 4.6 40.3 69 -0.5 31
09:45 1023 30.21 852 25.16 4.3 39.8 70 -0.6 31
09:50 1023 30.21 852 25.16 4.1 39.4 71 -0.6 31
09:55 1023 30.21 852 25.16 4.1 39.4 71 -0.7 30.8
10:00 1023 30.21 852 25.16 4.2 39.6 72 -0.4 31.3
10:05 1023 30.21 852 25.16 4.3 39.7 73 -0.1 31.8
10:10 1023 30.21 853 25.19 4.3 39.7 74 0 32
10:15 1023 30.21 853 25.19 4.3 39.8 73 -0 32
10:20 1023 30.21 853 25.19 4.5 40.1 72 -0.1 31.8
10:25 1023 30.21 853 25.19 4.8 40.6 69 -0.4 31.3
10:30 1023 30.21 853 25.19 4.9 40.9 71 0.1 32.1
10:35 1023 30.21 852 25.16 4.7 40.5 73 0.3 32.5
10:40 1023 30.21 852 25.16 4.8 40.6 72 0.1 32.1
10:45 1023 30.21 852 25.16 4.7 40.5 71 -0 31.9
10:50 1023 30.21 852 25.16 4.5 40 73 -0 31.9
10:55 1023 30.21 852 25.16 4.8 40.7 67 -0.7 30.7
11:00 1023 30.21 852 25.16 5.4 41.7 66 -0.4 31.3
11:05 1023 30.21 852 25.16 5.7 42.3 64 -0.5 31
11:10 1023 30.21 852 25.16 5.6 42.1 65 -0.4 31.3
11:15 1023 30.21 852 25.16 5.4 41.8 67 -0.1 31.7
11:20 1023 30.21 852 25.16 4.8 40.6 70 -0.2 31.7
11:25 1023 30.21 852 25.16 4.6 40.4 70 -0.4 31.3
11:30 1023 30.21 852 25.16 4.9 40.8 67 -0.8 30.6
11:35 1023 30.21 852 25.16 5.2 41.4 67 -0.3 31.5
11:40 1023 30.21 852 25.16 5.4 41.7 67 -0.1 31.8
11:45 1023 30.21 852 25.16 5.4 41.7 68 0 32
11:50 1023 30.21 852 25.16 5.2 41.3 68 -0.2 31.6
11:55 1023 30.21 852 25.16 5 41 67 -0.6 31
12:00 1023 30.21 852 25.16 4.9 40.8 68 -0.5 31.2
12:05 1022 30.18 852 25.16 5 41 66 -0.8 30.6
12:10 1022 30.18 852 25.16 5.4 41.7 65 -0.7 30.8
12:15 1022 30.18 851 25.13 5.7 42.2 63 -0.8 30.6
12:20 1022 30.18 851 25.13 5.8 42.4 63 -0.8 30.6
12:25 1022 30.18 851 25.13 5.8 42.5 63 -0.7 30.7
12:30 1022 30.18 851 25.13 5.9 42.6 63 -0.6 31
12:35 1022 30.18 851 25.13 5.5 41.9 64 -0.7 30.8
12:40 1022 30.18 851 25.13 5.3 41.5 66 -0.6 30.9
12:45 1022 30.18 851 25.13 5.3 41.5 66 -0.6 30.9
12:50 1022 30.18 851 25.13 5.3 41.5 65 -0.7 30.7
12:55 1022 30.18 851 25.13 5.4 41.6 64 -1 30.2
13:00 1022 30.18 851 25.13 5.3 41.6 63 -1 30.1
13:05 1022 30.18 851 25.13 5.4 41.8 64 -0.8 30.6
13:10 1022 30.18 851 25.13 5.6 42.1 64 -0.7 30.7
13:15 1021 30.15 851 25.13 6 42.8 62 -0.8 30.6
13:20 1021 30.15 851 25.13 6.2 43.1 62 -0.5 31.1
13:25 1021 30.15 850 25.1 6.2 43.1 63 -0.3 31.5
13:30 1021 30.15 851 25.13 6.1 43 62 -0.6 31
13:35 1021 30.15 851 25.13 6.3 43.4 61 -0.5 31
13:40 1021 30.15 850 25.1 6.7 44 60 -0.5 31.1
13:45 1021 30.15 850 25.1 6.9 44.3 59 -0.7 30.8
13:50 1021 30.15 850 25.1 7.2 44.9 58 -0.5 31.1
13:55 1021 30.15 850 25.1 7.1 44.8 60 -0 32
14:00 1021 30.15 850 25.1 6.9 44.5 60 -0.3 31.5
14:05 1021 30.15 850 25.1 7.1 44.7 59 -0.3 31.4
14:10 1021 30.15 850 25.1 6.6 43.9 61 -0.3 31.5
14:15 1021 30.15 850 25.1 6.5 43.6 61 -0.4 31.2
14:20 1021 30.15 850 25.1 6.5 43.8 61 -0.4 31.2
14:25 1021 30.15 850 25.1 6.8 44.2 59 -0.6 30.9
14:30 1021 30.15 850 25.1 6.9 44.5 60 -0.3 31.4
14:35 1021 30.15 850 25.1 6.9 44.5 58 -0.7 30.8
14:40 1021 30.15 850 25.1 7.1 44.7 60 -0.2 31.6
14:45 1021 30.15 851 25.13 6.9 44.4 59 -0.5 31.2
14:50 1021 30.15 851 25.13 7 44.6 58 -0.7 30.7
14:55 1021 30.15 851 25.13 7.1 44.8 58 -0.6 30.9
15:00 1021 30.15 851 25.13 6.8 44.3 61 -0.2 31.7
15:05 1021 30.15 851 25.13 6.2 43.1 65 0 32.1
15:10 1021 30.15 851 25.13 5.5 41.9 67 -0.1 31.9
15:15 1021 30.15 851 25.13 5.2 41.3 69 -0.1 31.9
15:20 1021 30.15 851 25.13 5.1 41.2 67 -0.5 31.2
15:25 1021 30.15 851 25.13 5.5 42 65 -0.5 31.1
15:30 1021 30.15 851 25.13 5.7 42.2 65 -0.3 31.4
15:35 1021 30.15 851 25.13 5.8 42.4 64 -0.6 30.9
15:40 1021 30.15 851 25.13 5.9 42.6 64 -0.3 31.4
15:45 1021 30.15 851 25.13 5.7 42.3 64 -0.5 31.2
15:50 1022 30.18 851 25.13 5.6 42.1 65 -0.4 31.3
15:55 1022 30.18 851 25.13 5.3 41.6 67 -0.2 31.6
16:00 1022 30.18 851 25.13 5.1 41.2 66 -0.6 30.9
16:05 1022 30.18 851 25.13 5.4 41.6 65 -0.7 30.7
16:10 1021 30.15 851 25.13 5.8 42.4 62 -1 30.3
16:15 1021 30.15 851 25.13 6.2 43.2 60 -1 30.2
16:20 1021 30.15 851 25.13 6.7 44.1 58 -1 30.3
16:25 1021 30.15 851 25.13 6.8 44.3 57 -1 30.1
16:30 1021 30.15 851 25.13 6.9 44.4 58 -0.7 30.7
16:35 1021 30.15 851 25.13 6.6 43.8 59 -0.9 30.4
16:40 1021 30.15 851 25.13 6.8 44.2 57 -1.2 29.8
16:45 1021 30.15 850 25.1 7 44.6 57 -0.9 30.4
16:50 1021 30.15 850 25.1 7 44.7 56 -1 30.1
16:55 1021 30.15 850 25.1 6.3 43.4 62 -0.4 31.2
17:00 1021 30.15 850 25.1 5.8 42.4 62 -0.9 30.3
17:05 1021 30.15 850 25.1 5.7 42.3 63 -0.7 30.7
17:10 1021 30.15 850 25.1 5.3 41.6 65 -0.7 30.7
17:15 1021 30.15 850 25.1 5.2 41.3 66 -0.7 30.7
17:20 1021 30.15 850 25.1 5.4 41.7 64 -0.9 30.4
17:25 1021 30.15 850 25.1 5.3 41.5 65 -0.7 30.7
17:30 1021 30.15 850 25.1 5.4 41.8 63 -1 30.2
17:35 1021 30.15 850 25.1 5.4 41.7 65 -0.8 30.6
17:40 1021 30.15 850 25.1 5.3 41.5 63 -1.1 30.1
17:45 1021 30.15 850 25.1 5.4 41.8 62 -1.3 29.6
17:50 1021 30.15 850 25.1 5.6 42.2 62 -1.1 29.9
17:55 1021 30.15 850 25.1 5.6 42.1 62 -1.1 30.1
18:00 1021 30.15 850 25.1 5.5 41.9 62 -1.2 29.8
18:05 1021 30.15 850 25.1 5.9 42.5 61 -1.2 29.9
18:10 1021 30.15 850 25.1 6 42.8 60 -1.2 29.8
18:15 1021 30.15 850 25.1 6.2 43.1 60 -1.1 30.1
18:20 1021 30.15 850 25.1 5.9 42.6 60 -1.2 29.9
18:25 1021 30.15 850 25.1 5.9 42.7 57 -1.9 28.6
18:30 1021 30.15 850 25.1 6.2 43.2 61 -0.7 30.7
18:35 1021 30.15 850 25.1 5.2 41.3 65 -0.9 30.4
18:40 1021 30.15 850 25.1 4.6 40.3 68 -0.8 30.6
18:45 1021 30.15 850 25.1 4.8 40.7 62 -1.7 28.9
18:50 1021 30.15 850 25.1 5.3 41.6 59 -2.1 28.3
18:55 1021 30.15 850 25.1 6.4 43.5 53 -2.5 27.6
19:00 1021 30.15 850 25.1 6.7 44 56 -1.4 29.4
19:05 1021 30.15 850 25.1 5.5 42 63 -1 30.3
19:10 1021 30.15 850 25.1 4.6 40.3 67 -1.1 30
19:15 1021 30.15 850 25.1 4.2 39.6 67 -1.3 29.7
19:20 1021 30.15 850 25.1 4.4 39.9 62 -2.3 27.9
19:25 1020 30.12 850 25.1 5.8 42.4 55 -2.6 27.4
19:30 1020 30.12 850 25.1 7 44.6 49 -3 26.6
19:35 1020 30.12 850 25.1 7.3 45.2 53 -1.7 28.9
19:40 1020 30.12 850 25.1 5.2 41.3 64 -1 30.3
19:45 1020 30.12 850 25.1 4.5 40.1 66 -1.4 29.5
19:50 1020 30.12 850 25.1 4 39.2 66 -1.8 28.7
19:55 1020 30.12 850 25.1 4.3 39.8 63 -2 28.4
20:00 1020 30.12 850 25.1 4.6 40.3 62 -1.9 28.5
20:05 1020 30.12 849 25.07 5 40.9 58 -2.5 27.4
20:10 1020 30.12 849 25.07 5.1 41.3 59 -2.1 28.2
20:15 1020 30.12 849 25.07 5.9 42.6 53 -3 26.5
20:20 1020 30.12 849 25.07 5.8 42.5 59 -1.6 29.1
20:25 1020 30.12 849 25.07 4.3 39.7 65 -1.8 28.8
20:30 1020 30.12 849 25.07 3.7 38.7 66 -2.1 28.2
20:35 1020 30.12 849 25.07 3.4 38.1 65 -2.5 27.5
20:40 1020 30.12 849 25.07 3.5 38.3 66 -2.4 27.8
20:45 1020 30.12 849 25.07 3.6 38.6 65 -2.4 27.8
20:50 1020 30.12 849 25.07 3.6 38.5 66 -2.2 28
20:55 1020 30.12 849 25.07 3.2 37.7 68 -2.1 28.2
21:00 1020 30.12 849 25.07 3.1 37.6 66 -2.6 27.3
21:05 1020 30.12 849 25.07 3.9 39 61 -2.9 26.8
21:10 1020 30.12 849 25.07 4 39.3 63 -2.4 27.6
21:15 1020 30.12 849 25.07 4.5 40.2 57 -3.1 26.4
21:20 1020 30.12 849 25.07 5.7 42.2 52 -3.5 25.8
21:25 1019 30.09 849 25.07 5.8 42.4 53 -3.2 26.3
21:30 1019 30.09 849 25.07 5 41 61 -2 28.5
21:35 1019 30.09 849 25.07 4.4 39.9 60 -2.7 27.2
21:40 1019 30.09 849 25.07 4.6 40.3 56 -3.4 25.9
21:45 1019 30.09 848 25.04 5.3 41.5 53 -3.6 25.4
21:50 1019 30.09 848 25.04 5.5 41.8 53 -3.4 26
21:55 1019 30.09 848 25.04 5.3 41.6 54 -3.3 26.1
22:00 1019 30.09 848 25.04 5 41.1 56 -3 26.6
22:05 1019 30.09 848 25.04 4.5 40.1 58 -3.1 26.4
22:10 1019 30.09 848 25.04 4.1 39.5 58 -3.4 25.9
22:15 1019 30.09 848 25.04 4.4 39.9 56 -3.6 25.6
22:20 1019 30.09 848 25.04 4.5 40.2 56 -3.4 25.8
22:25 1019 30.09 848 25.04 4 39.3 58 -3.4 25.9
22:30 1019 30.09 848 25.04 3.9 39.1 58 -3.5 25.6
22:35 1019 30.09 848 25.04 4.1 39.4 56 -3.8 25.1
22:40 1019 30.09 848 25.04 4.4 40 55 -3.9 25.1
22:45 1018 30.06 848 25.04 4.8 40.7 54 -3.6 25.5
22:50 1018 30.06 848 25.04 4.7 40.5 54 -3.7 25.4
22:55 1019 30.09 848 25.04 4.5 40.1 55 -3.6 25.4
23:00 1019 30.09 848 25.04 4.2 39.5 57 -3.5 25.6
23:05 1018 30.06 848 25.04 4 39.2 57 -3.8 25.1
23:10 1019 30.09 848 25.04 4.3 39.7 56 -3.8 25.2
23:15 1018 30.06 848 25.04 4.4 39.9 55 -3.7 25.3
23:20 1018 30.06 848 25.04 4.5 40.1 55 -3.7 25.3
23:25 1018 30.06 848 25.04 4.6 40.3 55 -3.5 25.6
23:30 1018 30.06 848 25.04 4.7 40.4 55 -3.6 25.5
23:35 1018 30.06 848 25.04 4.9 40.7 54 -3.7 25.4
23:40 1018 30.06 848 25.04 5.1 41.1 52 -4 24.9
23:45 1018 30.06 848 25.04 5.6 42 51 -3.8 25.2
23:50 1018 30.06 847 25.01 5.6 42 51 -3.6 25.4
23:55 1018 30.06 847 25.01 5.3 41.6 53 -3.5 25.8
24:00 1018 30.06 847 25.01 4.8 40.7 57 -3 26.7